createdAt,value
2022-08-05T00:01:53.742Z,20.20
2022-08-05T00:06:57.787Z,20.16
2022-08-05T00:12:01.939Z,20.06
2022-08-05T00:17:04.225Z,20.16
2022-08-05T00:22:08.381Z,19.95
2022-08-05T00:27:28.498Z,19.82
2022-08-05T00:32:16.710Z,19.71
2022-08-05T00:37:20.828Z,19.64
2022-08-05T00:42:31.584Z,19.54
2022-08-05T00:47:53.184Z,19.45
2022-08-05T00:52:33.333Z,19.43
2022-08-05T00:57:55.515Z,19.25
2022-08-05T01:02:41.641Z,19.24
2022-08-05T01:08:40.333Z,19.06
2022-08-05T01:13:05.054Z,18.98
2022-08-05T01:17:54.113Z,18.86
2022-08-05T01:22:58.258Z,18.80
2022-08-05T01:28:02.429Z,18.73
2022-08-05T01:33:08.321Z,18.78
2022-08-05T01:38:10.734Z,18.78
2022-08-05T01:43:22.049Z,18.84
2022-08-05T01:48:19.054Z,18.94
2022-08-05T01:53:56.929Z,19.04
2022-08-05T01:58:40.339Z,19.05
2022-08-05T02:03:32.118Z,19.04
2022-08-05T02:08:34.335Z,19.11
2022-08-05T02:13:36.513Z,19.22
2022-08-05T02:18:41.987Z,19.23
2022-08-05T02:23:42.538Z,19.31
2022-08-05T02:28:46.691Z,19.33
2022-08-05T02:33:57.794Z,19.36
2022-08-05T02:38:55.052Z,19.35
2022-08-05T02:44:02.263Z,19.37
2022-08-05T02:49:03.319Z,19.38
2022-08-05T02:54:07.480Z,19.38
2022-08-05T02:59:11.804Z,19.36
2022-08-05T03:04:15.875Z,19.29
2022-08-05T03:09:36.436Z,19.23
2022-08-05T03:14:24.154Z,19.19
2022-08-05T03:19:33.093Z,19.11
2022-08-05T03:24:32.468Z,19.01
2022-08-05T03:29:45.240Z,19.01
2022-08-05T03:34:40.753Z,18.85
2022-08-05T03:39:58.431Z,18.66
2022-08-05T03:44:49.120Z,18.46
2022-08-05T03:49:53.239Z,18.53
2022-08-05T03:54:59.070Z,18.35
2022-08-05T04:00:01.790Z,18.32
2022-08-05T04:05:05.707Z,18.22
2022-08-05T04:10:09.527Z,18.15
2022-08-05T04:15:15.733Z,18.15
2022-08-05T04:20:16.279Z,18.19
2022-08-05T04:25:18.625Z,18.20
2022-08-05T04:30:22.731Z,18.16
2022-08-05T04:35:26.881Z,18.20
2022-08-05T04:40:31.047Z,18.20
2022-08-05T04:45:48.953Z,18.18
2022-08-05T04:51:02.044Z,18.27
2022-08-05T04:56:11.968Z,18.24
2022-08-05T05:00:50.675Z,18.22
2022-08-05T05:06:38.901Z,18.23
2022-08-05T05:10:56.597Z,18.23
2022-08-05T05:16:02.314Z,18.28
2022-08-05T05:21:04.387Z,18.32
2022-08-05T05:26:08.514Z,18.21
2022-08-05T05:31:12.622Z,18.26
2022-08-05T05:36:16.850Z,18.30
2022-08-05T05:41:20.946Z,18.27
2022-08-05T05:46:25.144Z,18.35
2022-08-05T05:51:29.285Z,18.33
2022-08-05T05:56:34.520Z,18.31
2022-08-05T06:01:38.966Z,18.38
2022-08-05T06:06:42.133Z,18.48
2022-08-05T06:11:44.078Z,18.43
2022-08-05T06:16:48.210Z,18.40
2022-08-05T06:21:50.441Z,18.37
2022-08-05T06:26:54.614Z,18.39
2022-08-05T06:31:58.777Z,18.45
2022-08-05T06:37:02.910Z,18.49
2022-08-05T06:42:07.069Z,18.41
2022-08-05T06:47:29.939Z,18.39
2022-08-05T06:52:37.917Z,18.40
2022-08-05T06:57:57.464Z,18.37
2022-08-05T07:02:23.757Z,18.33
2022-08-05T07:07:35.378Z,18.26
2022-08-05T07:12:32.066Z,18.15
2022-08-05T07:18:00.227Z,18.04
2022-08-05T07:22:41.941Z,17.92
2022-08-05T07:27:58.469Z,17.90
2022-08-05T07:32:50.973Z,17.87
2022-08-05T07:37:52.924Z,17.77
2022-08-05T07:42:56.976Z,17.76
2022-08-05T07:48:01.188Z,17.66
2022-08-05T07:53:05.356Z,17.63
2022-08-05T07:58:09.752Z,17.53
2022-08-05T08:03:15.982Z,17.50
2022-08-05T08:08:15.917Z,17.41
2022-08-05T08:13:22.046Z,17.45
2022-08-05T08:18:24.249Z,17.45
2022-08-05T08:24:01.193Z,17.39
2022-08-05T08:28:35.634Z,17.55
2022-08-05T08:33:35.954Z,17.59
2022-08-05T08:38:38.980Z,17.62
2022-08-05T08:45:23.433Z,17.57
2022-08-05T08:49:06.317Z,17.48
2022-08-05T08:53:51.532Z,17.42
2022-08-05T08:58:55.633Z,17.51
2022-08-05T09:04:00.059Z,17.58
2022-08-05T09:09:03.995Z,17.64
2022-08-05T09:14:53.915Z,17.65
2022-08-05T09:19:12.252Z,17.59
2022-08-05T09:24:16.418Z,17.40
2022-08-05T09:29:20.595Z,17.51
2022-08-05T09:34:26.084Z,17.64
2022-08-05T09:39:45.096Z,17.77
2022-08-05T09:44:33.042Z,17.88
2022-08-05T09:49:54.686Z,17.96
2022-08-05T09:54:41.383Z,18.01
2022-08-05T09:59:45.533Z,17.90
2022-08-05T10:10:14.480Z,17.91
2022-08-05T10:14:56.161Z,17.82
2022-08-05T10:20:04.458Z,17.84
2022-08-05T10:25:04.463Z,17.90
2022-08-05T10:32:47.265Z,17.81
2022-08-05T10:35:12.784Z,17.84
2022-08-05T10:40:17.826Z,17.99
2022-08-05T10:45:30.525Z,18.13
2022-08-05T10:50:36.304Z,18.40
2022-08-05T10:55:29.386Z,18.56
2022-08-05T11:00:33.549Z,18.98
2022-08-05T11:05:37.779Z,19.14
2022-08-05T11:10:50.376Z,19.65
2022-08-05T11:15:59.032Z,19.57
2022-08-05T11:20:50.171Z,20.08
2022-08-05T11:26:05.321Z,20.44
2022-08-05T11:30:58.781Z,20.35
2022-08-05T11:36:07.705Z,20.81
2022-08-05T11:41:34.349Z,21.32
2022-08-05T11:46:23.428Z,21.26
2022-08-05T11:51:44.052Z,21.67
2022-08-05T11:56:25.356Z,21.90
2022-08-05T12:01:21.587Z,21.82
2022-08-05T12:06:25.716Z,22.05
2022-08-05T12:11:28.349Z,22.25
2022-08-05T12:16:32.172Z,22.38
2022-08-05T12:21:39.146Z,22.82
2022-08-05T12:26:44.131Z,22.37
2022-08-05T12:31:48.262Z,22.45
2022-08-05T12:36:48.798Z,22.54
2022-08-05T12:41:58.102Z,22.43
2022-08-05T12:46:57.134Z,22.78
2022-08-05T12:52:14.160Z,23.41
2022-08-05T12:57:09.577Z,22.82
2022-08-05T13:02:10.101Z,22.65
2022-08-05T13:07:16.219Z,22.56
2022-08-05T13:12:19.965Z,23.09
2022-08-05T13:17:31.722Z,22.80
2022-08-05T13:22:28.476Z,21.94
2022-08-05T13:27:37.950Z,21.48
2022-08-05T13:32:39.163Z,21.36
2022-08-05T13:37:38.692Z,21.74
2022-08-05T13:42:42.873Z,21.78
2022-08-05T13:48:08.735Z,22.48
2022-08-05T13:52:51.179Z,22.91
2022-08-05T13:57:53.431Z,22.55
2022-08-05T14:02:57.656Z,22.39
2022-08-05T14:08:05.835Z,22.13
2022-08-05T14:13:04.093Z,21.80
2022-08-05T14:18:06.348Z,21.60
2022-08-05T14:23:10.447Z,21.31
2022-08-05T14:28:15.956Z,21.16
2022-08-05T14:33:23.208Z,20.93
2022-08-05T14:38:32.714Z,20.82
2022-08-05T14:43:59.372Z,20.82
2022-08-05T14:48:33.200Z,20.84
2022-08-05T14:53:44.209Z,21.00
2022-08-05T14:58:39.617Z,21.20
2022-08-05T15:03:43.787Z,21.32
2022-08-05T15:08:58.618Z,21.62
2022-08-05T15:13:52.066Z,21.77
2022-08-05T15:18:56.215Z,22.01
2022-08-05T15:24:00.391Z,22.21
2022-08-05T15:29:04.534Z,22.62
2022-08-05T15:34:32.490Z,23.03
2022-08-05T15:41:00.571Z,22.99
2022-08-05T15:44:17.168Z,23.11
2022-08-05T15:49:39.958Z,23.70
2022-08-05T15:54:34.699Z,25.57
2022-08-05T15:59:29.478Z,27.30
2022-08-05T16:04:31.783Z,28.44
2022-08-05T16:09:35.990Z,26.75
2022-08-05T16:14:40.122Z,24.08
2022-08-05T16:20:05.693Z,23.18
2022-08-05T16:24:51.133Z,22.14
2022-08-05T16:29:52.652Z,22.33
2022-08-05T16:34:56.831Z,21.84
2022-08-05T16:40:07.104Z,21.45
2022-08-05T16:46:02.782Z,21.23
2022-08-05T16:50:09.204Z,20.84
2022-08-05T16:55:13.380Z,23.63
2022-08-05T17:00:33.956Z,25.39
2022-08-05T17:05:21.686Z,24.13
2022-08-05T17:10:26.528Z,22.90
2022-08-05T17:15:48.916Z,22.08
2022-08-05T17:20:34.175Z,21.87
2022-08-05T17:25:39.805Z,21.40
2022-08-05T17:30:51.993Z,21.27
2022-08-05T17:36:08.050Z,20.89
2022-08-05T17:40:50.780Z,20.60
2022-08-05T17:45:54.974Z,20.59
2022-08-05T17:50:57.194Z,20.61
2022-08-05T17:56:01.399Z,20.50
2022-08-05T18:01:03.675Z,20.38
2022-08-05T18:06:12.106Z,20.22
2022-08-05T18:11:24.645Z,20.09
2022-08-05T18:16:20.282Z,19.85
2022-08-05T18:21:22.965Z,19.67
2022-08-05T18:26:29.233Z,19.47
2022-08-05T18:31:33.830Z,19.21
2022-08-05T18:36:32.796Z,18.93
2022-08-05T18:41:56.032Z,18.87
2022-08-05T18:46:43.120Z,18.69
2022-08-05T18:52:05.293Z,18.49
2022-08-05T18:56:51.096Z,18.24
2022-08-05T19:01:57.234Z,18.00
2022-08-05T19:06:57.694Z,17.53
2022-08-05T19:12:01.877Z,17.32
2022-08-05T19:17:06.418Z,17.13
2022-08-05T19:22:10.179Z,16.92
2022-08-05T19:27:14.362Z,16.85
2022-08-05T19:32:20.520Z,16.74
2022-08-05T19:37:22.716Z,16.47
2022-08-05T19:42:35.362Z,16.17
2022-08-05T19:47:29.103Z,16.02
2022-08-05T19:52:33.551Z,15.80
2022-08-05T19:57:49.229Z,15.70
2022-08-05T20:02:41.569Z,15.60
2022-08-05T20:07:49.060Z,15.61
2022-08-05T20:12:49.895Z,15.80
2022-08-05T20:17:54.064Z,15.74
2022-08-05T20:22:58.449Z,15.82
2022-08-05T20:28:02.371Z,15.89
2022-08-05T20:33:06.555Z,15.82
2022-08-05T20:38:10.726Z,15.71
2022-08-05T20:43:14.845Z,15.56
2022-08-05T20:48:19.042Z,15.47
2022-08-05T20:53:36.441Z,15.39
2022-08-05T20:58:27.376Z,15.04
2022-08-05T21:03:34.571Z,14.85
2022-08-05T21:08:41.814Z,14.69
2022-08-05T21:13:47.766Z,14.85
2022-08-05T21:18:45.224Z,14.71
2022-08-05T21:23:48.113Z,14.47
2022-08-05T21:28:52.305Z,14.30
2022-08-05T21:33:54.569Z,14.07
2022-08-05T21:38:58.837Z,13.98
2022-08-05T21:44:04.437Z,13.94
2022-08-05T21:49:08.199Z,13.85
2022-08-05T21:54:11.207Z,13.72
2022-08-05T21:59:24.252Z,13.63
2022-08-05T22:04:19.523Z,13.55
2022-08-05T22:09:23.704Z,13.53
2022-08-05T22:14:35.881Z,13.37
2022-08-05T22:20:00.767Z,13.36
2022-08-05T22:24:40.841Z,13.25
2022-08-05T22:29:40.562Z,13.19
2022-08-05T22:34:44.508Z,13.14
2022-08-05T22:39:50.499Z,13.03
2022-08-05T22:44:56.673Z,12.94
2022-08-05T22:50:19.961Z,12.80
2022-08-05T22:55:01.126Z,12.62
2022-08-05T23:00:05.305Z,12.53
2022-08-05T23:05:09.447Z,12.47
2022-08-05T23:10:13.644Z,12.41
2022-08-05T23:15:18.084Z,12.35
2022-08-05T23:20:20.025Z,12.29
2022-08-05T23:25:53.249Z,12.23
2022-08-05T23:30:27.086Z,12.18
2022-08-05T23:35:34.176Z,12.12
2022-08-05T23:40:33.019Z,12.04
2022-08-05T23:45:37.067Z,11.96
2022-08-05T23:50:41.247Z,11.88
2022-08-05T23:55:43.957Z,11.82
